Hauptseite
METAR-TAF:

METAR-TAF

Flughäfen :

Flugplatz Hamburg-Finkenwerder

Finkenwerder, Deutschland

Breite: 53-32N, Länge: 009-50E, Höhe: 5 m

Beobachtung

Neuester Wetterbericht von vor 34 Minuten, um 20:50 UTC
Wind 5 kt aus West/Südwest
Temperatur 4°C
Luftfeuchtigkeit 70%
Luftdruck 1018 hPa
Sichtweite 10 km oder mehr

METAR: EDHI 032050Z AUTO 24005KT 9999 // NCD 04/M01 Q1018

Zeit: 23:24 (21:24 UTC)

Prognose

Neuester Wetterbericht von vor 4 Stunden und 24 Minuten, um 17:00 UTC
Gültige Prognose vom 03 um 18 UTC bis 03 um 21 UTC
Wind 10 kt aus West
Sichtweite 10 km oder mehr
keine Wolken unter 1500 m und keine Kumulonimbus oder Gewitterwolken
Übergehend zu
vom 03 um 18 UTC bis 03 um 20 UTC
Wind 5 kt aus West

TAF: EDHI 031700Z 0318/0321 28010KT CAVOK BECMG 0318/0320 26005KT

Wetterbeobachtungen und Prognosen von mehr als 4000 Flughäfen (METAR und TAF Bericht).

Die verfügbaren Stationen werden durch gelbe und rote Markierungen auf der Karte dargestellt.

Führen Sie die Maus auf sie, um den Namen der Station zu sehen.

Darauf klicken, um die Beobachtung von Wetterbeobachtungen und Prognosen zu sehen.

Um die Karte zu ändern : klicken Sie auf den grünen Tasten mit einem schwarzen Kreuz Zum Vergrößern, auf den grünen Button mit einem Gedankenstrich zu verkleinern, oder auf die grünen Pfeile für benachbarte Karten.


METAR-TAF: